Time;durP1;ratioP1;P1;durP2;ratioP2;P2;SDS_P1;SDS_P2;PMS_P1;PMS_P2;Temp;Humidity;BMP_temperature;BMP_pressure;BME280_temperature;BME280_humidity;BME280_pressure;Samples;Min_cycle;Max_cycle;Signal;HPM_P1;HPM_P2
2022/04/24 00:00:50;;;;;;;4.60;2.58;;;;;;;8.35;63.12;99971.97;6001338;28;20086;-68
2022/04/24 00:03:46;;;;;;;4.00;1.93;;;;;;;8.34;63.13;99966.84;6002248;28;20030;-67
2022/04/24 00:06:41;;;;;;;4.37;2.43;;;;;;;8.28;63.69;99970.91;6009809;28;20297;-68
2022/04/24 00:09:37;;;;;;;6.28;2.45;;;;;;;8.24;63.30;99958.94;6002090;28;20034;-68
2022/04/24 00:12:32;;;;;;;8.68;2.80;;;;;;;8.22;63.33;99971.47;6004432;28;20034;-68
2022/04/24 00:15:28;;;;;;;8.17;2.80;;;;;;;8.15;63.61;99959.84;6001939;28;20501;-69
2022/04/24 00:18:23;;;;;;;6.53;2.33;;;;;;;8.15;64.13;99956.38;6005732;28;20292;-70
2022/04/24 00:21:18;;;;;;;5.93;2.40;;;;;;;8.11;63.99;99963.78;6006117;28;20039;-70
2022/04/24 00:24:14;;;;;;;4.40;2.47;;;;;;;7.98;63.91;99955.38;6006613;28;20030;-69
2022/04/24 00:27:09;;;;;;;5.50;2.70;;;;;;;7.95;64.42;99957.47;6006663;28;20430;-67
2022/04/24 00:30:05;;;;;;;3.72;2.00;;;;;;;7.88;65.13;99951.94;6006200;28;20058;-68
2022/04/24 00:33:00;;;;;;;6.18;2.33;;;;;;;7.78;64.72;99951.16;6007607;28;20031;-68
2022/04/24 00:35:55;;;;;;;7.53;2.20;;;;;;;7.67;65.70;99946.09;6006158;28;20497;-67
2022/04/24 00:38:51;;;;;;;5.33;2.47;;;;;;;7.60;65.92;99942.38;6006444;28;20502;-69
2022/04/24 00:41:48;;;;;;;7.00;2.73;;;;;;;7.54;65.41;99943.78;6005471;28;20169;-69
2022/04/24 00:44:43;;;;;;;8.45;2.20;;;;;;;7.45;66.02;99939.38;6006389;28;20297;-70
2022/04/24 00:47:41;;;;;;;6.30;2.70;;;;;;;7.52;66.61;99945.75;6005831;28;20039;-70
2022/04/24 00:50:40;;;;;;;5.75;2.22;;;;;;;7.40;65.89;99932.88;6005477;28;20038;-70
2022/04/24 00:53:36;;;;;;;7.78;2.45;;;;;;;7.39;66.49;99939.16;6005881;28;20039;-68
2022/04/24 00:56:32;;;;;;;4.78;2.13;;;;;;;7.29;66.93;99935.69;6005344;28;20065;-67
2022/04/24 00:59:28;;;;;;;5.25;2.20;;;;;;;7.18;66.35;99927.00;6006190;28;20031;-68
2022/04/24 01:02:23;;;;;;;5.27;2.37;;;;;;;7.18;67.44;99931.44;6004904;28;20398;-68
2022/04/24 01:05:18;;;;;;;4.97;2.63;;;;;;;7.12;67.60;99922.28;6008403;28;20034;-68
2022/04/24 01:08:14;;;;;;;4.50;2.40;;;;;;;7.22;67.06;99926.72;6005943;28;20039;-68
2022/04/24 01:11:09;;;;;;;9.32;3.28;;;;;;;7.17;66.94;99925.31;6004733;28;20768;-68
2022/04/24 01:14:05;;;;;;;6.13;2.63;;;;;;;7.24;67.25;99930.88;6009248;28;20560;-68
2022/04/24 01:17:03;;;;;;;4.47;2.00;;;;;;;7.15;67.61;99937.81;6005696;28;20066;-68
2022/04/24 01:19:58;;;;;;;8.25;2.55;;;;;;;7.04;67.78;99931.88;6005594;28;20037;-68
2022/04/24 01:22:54;;;;;;;6.05;2.15;;;;;;;6.90;68.25;99930.53;6004331;28;20043;-68
2022/04/24 01:25:49;;;;;;;5.43;2.20;;;;;;;6.89;68.27;99923.63;6004849;28;20035;-68
2022/04/24 01:28:44;;;;;;;6.53;2.70;;;;;;;6.94;68.84;99925.81;6004413;28;20385;-68
2022/04/24 01:31:41;;;;;;;6.23;2.60;;;;;;;6.94;67.91;99928.44;6003408;28;20082;-68
2022/04/24 01:34:36;;;;;;;5.05;2.10;;;;;;;6.94;68.54;99920.53;6006244;28;20034;-68
2022/04/24 01:37:31;;;;;;;6.20;2.87;;;;;;;6.88;68.34;99924.56;6005444;28;20042;-68
2022/04/24 01:40:27;;;;;;;5.37;2.80;;;;;;;6.75;68.70;99912.66;6003534;28;20581;-69
2022/04/24 01:43:22;;;;;;;6.10;2.70;;;;;;;6.80;69.07;99916.53;6005123;28;20462;-68
2022/04/24 01:46:18;;;;;;;7.07;3.13;;;;;;;6.76;68.60;99920.44;6004637;28;20090;-68
2022/04/24 01:49:13;;;;;;;7.93;2.85;;;;;;;6.72;68.64;99916.41;6004795;28;20027;-68
2022/04/24 01:52:09;;;;;;;6.23;2.60;;;;;;;6.64;69.01;99907.56;6004277;28;20054;-68
2022/04/24 01:55:04;;;;;;;4.97;2.40;;;;;;;6.66;69.61;99916.19;6004446;28;20070;-68
2022/04/24 01:58:00;;;;;;;6.15;2.70;;;;;;;6.58;69.61;99908.94;6004864;28;20027;-68
2022/04/24 02:00:55;;;;;;;4.53;2.70;;;;;;;6.51;69.46;99905.22;6003735;28;20046;-68
2022/04/24 02:03:50;;;;;;;4.97;2.65;;;;;;;6.54;70.32;99912.84;6004698;28;20121;-68
2022/04/24 02:06:46;;;;;;;7.53;3.22;;;;;;;6.47;70.72;99914.34;6000804;28;20067;-68
2022/04/24 02:09:41;;;;;;;8.45;3.03;;;;;;;6.42;70.49;99921.84;6009684;28;20034;-68
2022/04/24 02:12:40;;;;;;;5.97;2.70;;;;;;;6.36;70.22;99917.16;6009494;28;20482;-68
2022/04/24 02:15:35;;;;;;;7.50;2.95;;;;;;;6.33;71.50;99922.72;6004367;28;20042;-68
2022/04/24 02:18:31;;;;;;;6.33;3.03;;;;;;;6.34;70.58;99913.81;6004237;28;20035;-68
2022/04/24 02:21:29;;;;;;;6.15;2.60;;;;;;;6.24;70.53;99913.00;6003390;28;20278;-68
2022/04/24 02:24:24;;;;;;;5.05;2.60;;;;;;;6.20;71.44;99922.13;6003707;28;20125;-68
2022/04/24 02:27:19;;;;;;;7.73;2.60;;;;;;;6.22;71.41;99914.94;6003940;28;20035;-68
2022/04/24 02:30:15;;;;;;;4.90;2.80;;;;;;;6.12;71.88;99919.34;6003248;28;20482;-68
2022/04/24 02:33:10;;;;;;;5.83;2.60;;;;;;;6.14;71.23;99913.00;6003319;28;20031;-68
2022/04/24 02:36:05;;;;;;;4.97;2.23;;;;;;;6.07;71.38;99911.03;6003816;28;20293;-68
2022/04/24 02:39:00;;;;;;;5.50;2.55;;;;;;;6.07;72.33;99911.88;6003212;28;20062;-68
2022/04/24 02:41:56;;;;;;;7.00;2.97;;;;;;;6.05;71.96;99908.56;6002970;28;20372;-68
2022/04/24 02:44:51;;;;;;;5.15;2.53;;;;;;;6.13;72.19;99918.38;6003541;28;20427;-68
2022/04/24 02:47:47;;;;;;;8.60;2.43;;;;;;;6.10;72.12;99916.88;6003600;28;20039;-68
2022/04/24 02:50:42;;;;;;;6.30;2.60;;;;;;;6.09;72.17;99909.13;6002333;28;20041;-68
2022/04/24 02:53:38;;;;;;;4.70;2.80;;;;;;;6.13;72.37;99910.50;6003515;28;20390;-68
2022/04/24 02:56:33;;;;;;;6.53;2.58;;;;;;;5.95;72.61;99900.63;6003200;28;20061;-68
2022/04/24 02:59:29;;;;;;;6.63;2.47;;;;;;;6.06;72.75;99906.75;6002802;28;20490;-68
2022/04/24 03:02:24;;;;;;;6.18;2.78;;;;;;;5.97;72.38;99905.78;6002397;28;20388;-68
2022/04/24 03:05:21;;;;;;;5.30;2.40;;;;;;;5.89;72.79;99901.19;6008609;28;20034;-68
2022/04/24 03:08:18;;;;;;;6.75;2.53;;;;;;;5.87;72.78;99900.47;6010191;28;20023;-68
2022/04/24 03:11:14;;;;;;;5.88;2.20;;;;;;;5.94;72.77;99899.00;6002653;28;20034;-68
2022/04/24 03:14:09;;;;;;;6.10;2.83;;;;;;;5.88;72.95;99903.94;6005602;28;20053;-68
2022/04/24 03:17:05;;;;;;;6.17;2.87;;;;;;;5.85;73.21;99891.91;6002906;28;20035;-68
2022/04/24 03:20:05;;;;;;;8.43;2.90;;;;;;;5.89;72.89;99903.84;6002344;28;20038;-68
2022/04/24 03:23:00;;;;;;;8.10;2.78;;;;;;;5.80;73.74;99903.75;6002526;28;20039;-68
2022/04/24 03:25:55;;;;;;;5.17;2.73;;;;;;;5.82;73.48;99902.66;6003082;28;20035;-68
2022/04/24 03:28:51;;;;;;;6.67;2.67;;;;;;;5.84;73.73;99905.16;6002183;28;20313;-68
2022/04/24 03:31:46;;;;;;;10.30;2.97;;;;;;;5.74;73.75;99905.13;6002412;28;20039;-68
2022/04/24 03:34:41;;;;;;;7.53;3.13;;;;;;;5.89;73.76;99903.00;6002273;28;20031;-68
2022/04/24 03:37:38;;;;;;;5.70;2.47;;;;;;;5.85;73.86;99902.44;6002281;28;20053;-68
2022/04/24 03:40:33;;;;;;;4.88;2.80;;;;;;;5.79;74.40;99910.81;6002143;28;20094;-68
2022/04/24 03:43:28;;;;;;;8.45;3.35;;;;;;;5.67;74.83;99904.03;6001979;28;20386;-68
2022/04/24 03:46:24;;;;;;;8.95;3.38;;;;;;;5.63;75.58;99905.25;6002341;28;20049;-68
2022/04/24 03:49:19;;;;;;;7.97;3.87;;;;;;;5.70;74.58;99893.25;6002102;28;20043;-68
2022/04/24 03:52:15;;;;;;;6.18;2.55;;;;;;;5.60;75.02;99907.34;6000984;28;20065;-68
2022/04/24 03:55:10;;;;;;;7.90;3.30;;;;;;;5.45;75.67;99892.88;6002444;28;20505;-68
2022/04/24 03:58:06;;;;;;;9.80;4.23;;;;;;;5.41;75.55;99897.56;6002109;28;20395;-68
2022/04/24 04:01:01;;;;;;;6.47;3.40;;;;;;;5.39;76.03;99891.63;6002074;28;20070;-68
2022/04/24 04:03:57;;;;;;;7.43;3.43;;;;;;;5.34;76.53;99896.44;6001822;28;20046;-69
2022/04/24 04:06:53;;;;;;;8.00;3.58;;;;;;;5.37;76.76;99897.03;6015537;28;20035;-68
2022/04/24 04:09:48;;;;;;;7.57;3.10;;;;;;;5.30;76.60;99895.88;6001917;28;20037;-68
2022/04/24 04:12:43;;;;;;;12.37;3.70;;;;;;;5.29;77.17;99898.66;6007081;28;20506;-68
2022/04/24 04:15:39;;;;;;;8.00;3.53;;;;;;;5.30;76.46;99906.38;6002310;28;20039;-68
2022/04/24 04:18:34;;;;;;;6.80;3.13;;;;;;;5.32;76.56;99903.63;6001596;28;20170;-68
2022/04/24 04:21:30;;;;;;;6.23;3.00;;;;;;;5.28;77.25;99894.34;6001473;28;20285;-68
2022/04/24 04:24:25;;;;;;;6.30;3.10;;;;;;;5.31;76.29;99887.03;6001640;28;20041;-68
2022/04/24 04:27:21;;;;;;;6.07;3.10;;;;;;;5.28;77.04;99892.56;6001896;28;20043;-68
2022/04/24 04:30:16;;;;;;;6.03;2.95;;;;;;;5.24;77.18;99891.16;6001698;28;20031;-68
2022/04/24 04:33:12;;;;;;;7.30;2.83;;;;;;;5.28;77.19;99896.97;6001525;28;20102;-68
2022/04/24 04:36:08;;;;;;;8.52;3.15;;;;;;;5.27;77.29;99896.13;6006501;28;20269;-68
2022/04/24 04:39:03;;;;;;;4.53;2.65;;;;;;;5.31;76.97;99899.34;6005152;28;20082;-68
2022/04/24 04:41:58;;;;;;;5.83;2.70;;;;;;;5.34;77.15;99899.06;6000074;28;20035;-68
2022/04/24 04:44:56;;;;;;;9.20;3.23;;;;;;;5.46;76.30;99908.53;6010219;28;20039;-68
2022/04/24 04:47:51;;;;;;;7.40;3.30;;;;;;;5.56;76.84;99901.50;6002855;28;20047;-68
2022/04/24 04:50:47;;;;;;;8.55;3.47;;;;;;;5.69;76.93;99907.34;6001447;28;20030;-68
2022/04/24 04:53:42;;;;;;;7.90;3.58;;;;;;;5.79;75.51;99896.84;6001001;28;20039;-68
2022/04/24 04:56:37;;;;;;;5.00;2.78;;;;;;;6.08;74.26;99896.91;6001796;28;20041;-69
2022/04/24 04:59:33;;;;;;;5.82;2.67;;;;;;;6.39;73.20;99907.16;6006453;28;20037;-68
2022/04/24 05:02:29;;;;;;;5.05;2.72;;;;;;;6.22;73.15;99907.88;6001605;28;20034;-68
2022/04/24 05:05:24;;;;;;;5.40;2.30;;;;;;;6.39;73.61;99916.84;6012448;28;20038;-68
2022/04/24 05:08:19;;;;;;;7.10;2.70;;;;;;;6.21;73.31;99902.75;6012476;28;20035;-68
2022/04/24 05:11:15;;;;;;;5.87;2.70;;;;;;;6.48;73.46;99913.41;6006360;28;20105;-68
2022/04/24 05:14:10;;;;;;;9.57;3.13;;;;;;;6.41;72.70;99918.38;6005644;28;20031;-69
2022/04/24 05:17:06;;;;;;;4.77;2.30;;;;;;;6.59;73.35;99915.88;6005309;28;20037;-68
2022/04/24 05:20:02;;;;;;;5.93;2.72;;;;;;;6.49;72.92;99907.19;6005254;28;20045;-68
2022/04/24 05:23:05;;;;;;;5.63;2.95;;;;;;;6.57;73.12;99907.31;6004617;28;20459;-68
2022/04/24 05:26:00;;;;;;;6.05;2.63;;;;;;;6.98;71.44;99906.97;6005512;28;20031;-68
2022/04/24 05:28:55;;;;;;;5.90;2.37;;;;;;;6.98;71.19;99909.59;6005328;28;20615;-68
2022/04/24 05:31:51;;;;;;;7.90;2.83;;;;;;;7.30;70.68;99913.63;6004682;28;20027;-67
2022/04/24 05:34:46;;;;;;;6.80;3.00;;;;;;;7.48;70.73;99912.72;6005508;28;20090;-68
2022/04/24 05:37:42;;;;;;;4.80;2.50;;;;;;;7.62;69.82;99908.75;6004458;28;20494;-68
2022/04/24 05:40:37;;;;;;;7.78;2.60;;;;;;;7.62;68.75;99908.75;6004800;28;20035;-68
2022/04/24 05:43:33;;;;;;;6.63;2.70;;;;;;;8.02;68.29;99903.09;6004753;28;20085;-68
2022/04/24 05:46:29;;;;;;;6.30;2.93;;;;;;;8.70;65.74;99910.34;6004904;28;20034;-68
2022/04/24 05:49:24;;;;;;;5.88;3.03;;;;;;;8.34;66.54;99914.81;6005249;28;20545;-68
2022/04/24 05:52:19;;;;;;;7.57;2.93;;;;;;;8.59;65.69;99915.06;6003920;28;20038;-68
2022/04/24 05:55:15;;;;;;;5.40;3.13;;;;;;;8.28;66.86;99915.47;6005150;28;20018;-68
2022/04/24 05:58:10;;;;;;;6.40;2.75;;;;;;;8.54;65.63;99912.84;6004707;28;20129;-68
2022/04/24 06:01:05;;;;;;;8.00;3.60;;;;;;;8.16;66.14;99913.13;6003746;28;20047;-68
2022/04/24 06:04:01;;;;;;;5.27;2.43;;;;;;;8.55;66.42;99911.88;6004021;28;20487;-68
2022/04/24 06:06:56;;;;;;;6.07;2.27;;;;;;;8.87;64.68;99911.28;6017892;28;20045;-68
2022/04/24 06:09:51;;;;;;;5.40;2.63;;;;;;;8.79;65.27;99905.94;6011699;28;20042;-69
2022/04/24 06:12:54;;;;;;;4.87;2.40;;;;;;;8.77;64.24;99908.75;6013057;28;20106;-68
2022/04/24 06:15:49;;;;;;;5.80;2.35;;;;;;;8.99;64.45;99910.06;6003935;28;20270;-68
2022/04/24 06:18:44;;;;;;;8.97;2.93;;;;;;;8.94;63.80;99909.72;6004494;28;20390;-69
2022/04/24 06:21:39;;;;;;;6.50;2.23;;;;;;;9.13;63.60;99904.19;6003312;28;20046;-67
2022/04/24 06:24:35;;;;;;;9.50;2.60;;;;;;;9.22;63.80;99907.69;6004025;28;20035;-68
2022/04/24 06:27:31;;;;;;;4.67;2.63;;;;;;;9.71;61.91;99896.34;6004232;28;20098;-68
2022/04/24 06:30:28;;;;;;;5.72;2.72;;;;;;;9.67;61.56;99902.13;6003262;28;20478;-68
2022/04/24 06:33:24;;;;;;;5.78;2.75;;;;;;;9.63;62.12;99898.97;6004207;28;20043;-68
2022/04/24 06:36:19;;;;;;;6.10;2.60;;;;;;;10.29;59.73;99891.03;6003211;28;20097;-68
2022/04/24 06:39:15;;;;;;;4.85;2.20;;;;;;;10.49;58.55;99894.22;6004270;28;20050;-69
2022/04/24 06:42:10;;;;;;;4.72;2.35;;;;;;;10.44;59.20;99894.69;6002222;28;20047;-68
2022/04/24 06:45:06;;;;;;;6.10;3.00;;;;;;;10.77;57.83;99877.78;6003165;28;20441;-68
2022/04/24 06:48:06;;;;;;;8.43;2.45;;;;;;;10.56;58.00;99896.03;6003169;28;20293;-68
2022/04/24 06:51:01;;;;;;;5.38;2.60;;;;;;;10.34;58.46;99891.38;6002842;28;20035;-68
2022/04/24 06:53:56;;;;;;;5.77;2.37;;;;;;;10.40;58.90;99885.44;6003078;28;20042;-68
2022/04/24 06:56:52;;;;;;;4.87;2.27;;;;;;;10.90;57.99;99881.75;6002796;28;20776;-68
2022/04/24 06:59:47;;;;;;;6.90;2.67;;;;;;;10.85;57.61;99876.09;6004759;28;20035;-68
2022/04/24 07:02:43;;;;;;;4.73;2.17;;;;;;;10.45;58.42;99883.09;6002004;28;20042;-68
2022/04/24 07:05:39;;;;;;;4.90;2.47;;;;;;;10.32;60.20;99877.47;6011107;28;20053;-68
2022/04/24 07:08:35;;;;;;;4.15;2.00;;;;;;;11.28;57.28;99883.63;6007769;28;20046;-68
2022/04/24 07:11:30;;;;;;;5.60;2.63;;;;;;;10.96;57.01;99873.09;6012669;28;20506;-68
2022/04/24 07:14:26;;;;;;;6.00;2.60;;;;;;;10.83;58.36;99880.75;6004449;28;20042;-69
2022/04/24 07:17:21;;;;;;;8.37;2.70;;;;;;;10.62;58.01;99875.97;6002075;28;20037;-68
2022/04/24 07:20:18;;;;;;;4.68;2.33;;;;;;;10.38;58.85;99876.78;6001769;28;20058;-67
2022/04/24 07:23:15;;;;;;;5.35;2.47;;;;;;;10.42;58.99;99883.44;6002414;28;20035;-68
2022/04/24 07:26:10;;;;;;;5.22;2.50;;;;;;;10.54;58.51;99874.16;6002501;28;20046;-68
2022/04/24 07:29:05;;;;;;;10.13;2.53;;;;;;;10.77;58.62;99867.16;6002763;28;20034;-68
2022/04/24 07:32:01;;;;;;;4.87;2.63;;;;;;;11.15;57.51;99870.06;6001846;28;20389;-68
2022/04/24 07:34:56;;;;;;;7.70;2.30;;;;;;;11.39;56.58;99864.66;6000282;28;20093;-68
2022/04/24 07:37:52;;;;;;;5.30;2.20;;;;;;;11.74;55.93;99866.88;6002232;28;20129;-68
2022/04/24 07:40:47;;;;;;;5.13;2.22;;;;;;;12.15;55.32;99864.78;6000868;28;20031;-69
2022/04/24 07:43:48;;;;;;;5.87;2.33;;;;;;;12.19;54.30;99868.75;6002580;28;20027;-68
2022/04/24 07:46:43;;;;;;;5.15;2.25;;;;;;;12.27;55.19;99851.91;6002422;28;20278;-69
2022/04/24 07:49:39;;;;;;;4.20;2.20;;;;;;;12.21;54.26;99858.75;6002567;28;20471;-68
2022/04/24 07:52:34;;;;;;;8.70;2.70;;;;;;;12.36;54.21;99850.84;6002556;28;20046;-69
2022/04/24 07:55:30;;;;;;;5.60;2.77;;;;;;;12.19;55.09;99859.94;6006593;28;20078;-68
2022/04/24 07:58:27;;;;;;;8.32;3.28;;;;;;;12.66;53.41;99857.06;6003957;28;20117;-68
2022/04/24 08:01:22;;;;;;;7.53;2.55;;;;;;;12.08;54.63;99858.53;5943819;28;20070;-69
2022/04/24 08:04:18;;;;;;;6.60;2.70;;;;;;;11.93;55.44;99855.78;6000529;28;20034;-68
2022/04/24 08:07:15;;;;;;;4.60;2.20;;;;;;;12.20;54.87;99851.78;6004923;28;20497;-67
2022/04/24 08:10:10;;;;;;;7.15;3.05;;;;;;;11.79;55.42;99845.94;6001335;28;20031;-68
2022/04/24 08:13:06;;;;;;;8.13;2.90;;;;;;;11.20;57.42;99854.44;6009376;28;20078;-68
2022/04/24 08:16:02;;;;;;;6.53;2.97;;;;;;;11.15;57.96;99854.16;6002107;28;20030;-68
2022/04/24 08:19:01;;;;;;;9.57;2.85;;;;;;;11.25;57.61;99849.50;6002637;28;20474;-68
2022/04/24 08:21:56;;;;;;;7.95;3.10;;;;;;;11.67;56.43;99849.94;6001168;28;20047;-68
2022/04/24 08:24:51;;;;;;;8.20;3.53;;;;;;;12.13;55.93;99850.00;6002478;28;20074;-68
2022/04/24 08:27:47;;;;;;;7.20;3.70;;;;;;;12.67;54.37;99850.72;6001942;28;20394;-68
2022/04/24 08:30:44;;;;;;;7.68;2.72;;;;;;;12.66;54.67;99847.25;6001066;28;20490;-68
2022/04/24 08:33:39;;;;;;;5.88;3.00;;;;;;;12.40;55.76;99844.16;6001692;28;20039;-68
2022/04/24 08:36:35;;;;;;;5.50;2.90;;;;;;;12.66;55.06;99849.94;5995902;28;20034;-68
2022/04/24 08:39:32;;;;;;;7.97;3.23;;;;;;;13.17;53.28;99845.59;6006144;28;20041;-68
2022/04/24 08:42:28;;;;;;;8.32;3.50;;;;;;;12.90;54.01;99844.34;6005849;28;20050;-68
2022/04/24 08:45:26;;;;;;;6.60;2.67;;;;;;;13.22;53.80;99842.38;6005529;28;20030;-68
2022/04/24 08:48:21;;;;;;;5.90;3.15;;;;;;;13.47;53.12;99851.72;6003136;28;20454;-68
2022/04/24 08:51:17;;;;;;;6.13;2.75;;;;;;;13.84;53.16;99843.56;6005328;28;20122;-68
2022/04/24 08:54:12;;;;;;;7.15;3.10;;;;;;;13.81;52.36;99835.94;6001925;28;20043;-68
2022/04/24 08:57:09;;;;;;;8.13;3.60;;;;;;;13.34;52.08;99846.22;6006223;28;20507;-67
2022/04/24 09:00:07;;;;;;;7.47;3.17;;;;;;;13.47;53.18;99841.91;6005400;28;20035;-68
2022/04/24 09:03:02;;;;;;;8.77;3.50;;;;;;;13.16;52.74;99846.59;6004631;28;20068;-68
2022/04/24 09:05:57;;;;;;;9.80;4.10;;;;;;;13.25;53.32;99836.69;6001463;28;20674;-68
2022/04/24 09:09:04;;;;;;;9.33;3.27;;;;;;;13.61;52.52;99845.56;6003567;28;20290;-68
2022/04/24 09:12:07;;;;;;;6.38;3.08;;;;;;;14.14;51.40;99839.78;5993691;28;20034;-68
2022/04/24 09:15:02;;;;;;;9.05;3.58;;;;;;;13.59;52.19;99835.06;6010586;28;20069;-68
2022/04/24 09:18:02;;;;;;;8.50;3.97;;;;;;;13.68;53.21;99835.78;6003609;28;20031;-68
2022/04/24 09:20:58;;;;;;;6.70;3.20;;;;;;;14.46;51.04;99827.78;6004089;28;20478;-68
2022/04/24 09:23:58;;;;;;;7.90;3.93;;;;;;;14.00;51.40;99834.47;6005812;28;20042;-68
2022/04/24 09:26:55;;;;;;;8.77;3.47;;;;;;;14.19;51.89;99837.34;6004953;28;20429;-68
2022/04/24 09:29:59;;;;;;;6.93;3.33;;;;;;;13.89;51.88;99835.81;6004997;28;20030;-69
2022/04/24 09:32:56;;;;;;;7.45;2.78;;;;;;;14.16;52.11;99835.06;6002947;28;20042;-68
2022/04/24 09:35:55;;;;;;;9.75;4.35;;;;;;;14.07;51.92;99833.56;6009592;28;20038;-67
2022/04/24 09:38:50;;;;;;;7.10;3.40;;;;;;;14.65;50.97;99844.94;6004553;28;20042;-68
2022/04/24 09:41:45;;;;;;;8.20;3.70;;;;;;;14.15;52.11;99841.44;6004445;28;20038;-68
2022/04/24 09:44:52;;;;;;;7.87;4.00;;;;;;;14.46;50.34;99827.78;6002516;28;20085;-68
2022/04/24 09:47:56;;;;;;;6.43;3.22;;;;;;;15.23;50.30;99835.69;6003302;28;20043;-68
2022/04/24 09:50:51;;;;;;;8.30;3.90;;;;;;;15.27;48.49;99843.09;6003859;28;20030;-68
2022/04/24 09:53:47;;;;;;;12.80;4.57;;;;;;;15.22;49.77;99845.56;6005003;28;20387;-69
2022/04/24 09:56:43;;;;;;;9.38;3.70;;;;;;;15.34;50.33;99844.00;6005149;28;20630;-68
2022/04/24 09:59:46;;;;;;;7.38;3.47;;;;;;;15.68;49.65;99850.34;6004712;28;20041;-67
2022/04/24 10:02:41;;;;;;;9.38;3.42;;;;;;;15.38;50.47;99847.91;6003792;28;20039;-67
2022/04/24 10:05:38;;;;;;;7.63;3.40;;;;;;;15.73;48.94;99853.22;5987964;28;20031;-67
2022/04/24 10:08:34;;;;;;;9.77;3.80;;;;;;;15.14;49.70;99852.88;5999393;28;20398;-68
2022/04/24 10:11:29;;;;;;;9.32;3.78;;;;;;;14.62;50.72;99853.38;6005780;28;20034;-68
2022/04/24 10:14:25;;;;;;;7.57;4.00;;;;;;;14.39;51.69;99855.41;6005371;28;20050;-68
2022/04/24 10:17:39;;;;;;;9.40;3.70;;;;;;;14.25;53.44;99863.25;5988556;28;20073;-68
2022/04/24 10:21:16;;;;;;;5.68;3.30;;;;;;;14.63;51.83;99855.84;5991134;28;20270;-68
2022/04/24 10:24:12;;;;;;;7.78;4.05;;;;;;;14.64;52.33;99851.34;5997315;28;20045;-68
2022/04/24 10:27:12;;;;;;;6.47;3.50;;;;;;;14.91;51.44;99855.84;6004054;28;20042;-68
2022/04/24 10:30:11;;;;;;;7.55;3.65;;;;;;;15.45;50.15;99846.09;6003462;28;20031;-69
2022/04/24 10:33:25;;;;;;;8.68;3.60;;;;;;;14.91;50.65;99853.19;6003403;28;20085;-69
2022/04/24 10:36:22;;;;;;;6.22;3.80;;;;;;;15.07;50.21;99844.84;6003951;28;20031;-69
2022/04/24 10:39:19;;;;;;;9.85;5.13;;;;;;;14.65;51.86;99839.63;6004053;28;20386;-69
2022/04/24 10:42:15;;;;;;;9.00;4.22;;;;;;;14.57;51.28;99839.75;6002594;28;20399;-69
2022/04/24 10:45:16;;;;;;;9.10;4.13;;;;;;;14.57;52.73;99839.75;6003777;28;20038;-69
2022/04/24 10:48:14;;;;;;;9.45;3.95;;;;;;;15.06;50.91;99843.19;6003514;28;20031;-69
2022/04/24 10:51:10;;;;;;;8.77;3.90;;;;;;;14.90;51.42;99835.50;5985259;28;20175;-68
2022/04/24 10:54:13;;;;;;;7.43;4.03;;;;;;;15.15;51.01;99838.53;6003078;28;20034;-69
2022/04/24 10:57:16;;;;;;;7.50;3.75;;;;;;;15.14;50.88;99832.34;6003289;28;20042;-69
2022/04/24 11:00:19;;;;;;;11.18;4.10;;;;;;;15.17;51.09;99839.97;6008149;28;20031;-69
2022/04/24 11:03:15;;;;;;;9.80;4.20;;;;;;;15.56;50.59;99836.72;6003232;28;20034;-69
2022/04/24 11:06:37;;;;;;;7.65;3.70;;;;;;;15.71;49.87;99828.56;5998653;28;20037;-69
2022/04/24 11:09:38;;;;;;;8.55;3.85;;;;;;;16.11;49.09;99824.13;6000587;28;20038;-69
2022/04/24 11:12:33;;;;;;;9.38;4.13;;;;;;;15.66;49.97;99817.63;6013512;28;20038;-69
2022/04/24 11:15:29;;;;;;;9.95;4.38;;;;;;;15.33;50.02;99812.94;6004128;28;20044;-69
2022/04/24 11:18:26;;;;;;;7.75;4.10;;;;;;;15.31;51.13;99820.34;6002887;28;20042;-69
2022/04/24 11:21:23;;;;;;;8.32;4.80;;;;;;;15.60;49.62;99816.56;6001512;28;20161;-68
2022/04/24 11:24:18;;;;;;;10.85;4.82;;;;;;;15.18;49.98;99817.59;6002861;28;20133;-68
2022/04/24 11:27:14;;;;;;;8.43;4.60;;;;;;;16.20;49.17;99807.66;6002868;28;20046;-70
2022/04/24 11:30:21;;;;;;;10.48;4.65;;;;;;;16.21;48.62;99798.63;6001677;28;20070;-69
2022/04/24 11:33:16;;;;;;;6.60;4.10;;;;;;;16.26;48.18;99806.00;6000480;28;20027;-70
2022/04/24 11:36:12;;;;;;;7.10;4.03;;;;;;;16.44;47.34;99806.25;6002158;28;20470;-69
2022/04/24 11:39:13;;;;;;;9.97;4.27;;;;;;;16.50;47.00;99803.56;5999658;28;20037;-67
2022/04/24 11:42:09;;;;;;;10.48;5.22;;;;;;;16.25;47.53;99796.38;6000720;28;20047;-68
2022/04/24 11:51:41;;;;;;;9.80;4.43;;;;;;;15.97;48.51;99802.72;6001573;28;20114;-70
2022/04/24 11:54:36;;;;;;;9.45;4.35;;;;;;;16.11;48.14;99802.72;5984945;28;20027;-70
2022/04/24 11:57:35;;;;;;;7.73;3.80;;;;;;;16.13;47.90;99801.47;5985420;28;20030;-69
2022/04/24 12:00:38;;;;;;;8.07;4.78;;;;;;;15.83;48.73;99795.69;5994412;28;20293;-69
2022/04/24 12:03:37;;;;;;;9.98;4.80;;;;;;;16.30;48.24;99801.91;6002446;28;20026;-69
2022/04/24 12:06:32;;;;;;;10.02;4.60;;;;;;;16.99;46.56;99796.91;6015263;28;20030;-69
2022/04/24 12:09:28;;;;;;;11.23;4.28;;;;;;;16.41;47.15;99807.47;6001634;28;20090;-69
2022/04/24 12:12:23;;;;;;;8.90;4.17;;;;;;;16.36;48.19;99803.78;6006001;28;20121;-69
2022/04/24 12:15:21;;;;;;;7.83;4.40;;;;;;;16.54;47.19;99802.16;6007048;28;20364;-69
2022/04/24 12:18:21;;;;;;;6.72;4.07;;;;;;;16.40;47.60;99802.31;6006857;28;20313;-69
2022/04/24 12:21:19;;;;;;;;;;;;;;;16.89;47.18;99799.22;6006857;28;20035;-69
2022/04/24 12:24:15;;;;;;;15.45;6.18;;;;;;;17.27;46.61;99803.66;6004140;28;19914;-68
2022/04/24 12:27:16;;;;;;;7.80;4.30;;;;;;;16.65;45.82;99798.84;6006840;28;20031;-69
2022/04/24 12:30:11;;;;;;;7.75;4.55;;;;;;;16.18;47.31;99801.69;6005873;28;20133;-69
2022/04/24 12:33:07;;;;;;;7.70;4.70;;;;;;;16.61;46.64;99799.47;6006470;28;20039;-69
2022/04/24 12:36:10;;;;;;;8.05;4.78;;;;;;;17.02;46.67;99791.16;6006012;28;20704;-69
2022/04/24 12:39:06;;;;;;;7.85;4.15;;;;;;;17.18;45.10;99788.00;6005716;28;20035;-69
2022/04/24 12:42:15;;;;;;;8.70;4.20;;;;;;;17.47;44.96;99790.19;6005959;28;20077;-69
2022/04/24 12:45:10;;;;;;;9.38;4.85;;;;;;;17.15;43.91;99772.34;6006519;28;20049;-68
2022/04/24 12:48:05;;;;;;;10.23;4.13;;;;;;;17.18;45.67;99791.50;6006071;28;20031;-69
2022/04/24 12:51:01;;;;;;;11.43;5.00;;;;;;;16.92;44.46;99780.06;6008624;28;20453;-69
2022/04/24 12:53:57;;;;;;;7.80;4.17;;;;;;;17.09;43.89;99786.63;6006251;28;20039;-70
2022/04/24 12:56:53;;;;;;;8.45;4.40;;;;;;;15.85;47.72;99787.44;6006285;28;20045;-69
2022/04/24 12:59:48;;;;;;;8.75;4.70;;;;;;;16.54;46.37;99782.59;5988928;28;20055;-69
2022/04/24 13:02:44;;;;;;;6.63;4.10;;;;;;;16.34;46.14;99787.91;6005458;28;20497;-69
2022/04/24 13:05:39;;;;;;;11.73;4.50;;;;;;;16.37;47.03;99779.47;6005904;28;20041;-69
2022/04/24 13:08:34;;;;;;;7.50;3.80;;;;;;;16.38;46.89;99782.97;6002033;28;20039;-69
2022/04/24 13:11:30;;;;;;;9.77;4.43;;;;;;;16.54;46.79;99782.59;6001486;28;21502;-69
2022/04/24 13:14:25;;;;;;;10.07;4.38;;;;;;;16.22;46.31;99784.22;6006384;28;20039;-69
2022/04/24 13:20:36;;;;;;;7.97;4.18;;;;;;;16.07;48.13;99780.91;6001913;28;20274;-69
2022/04/24 13:23:32;;;;;;;6.95;3.88;;;;;;;16.02;47.80;99772.66;6005386;28;20117;-69
2022/04/24 13:26:27;;;;;;;8.80;3.65;;;;;;;16.36;48.71;99780.50;6005298;28;20035;-69
2022/04/24 13:29:22;;;;;;;7.83;4.10;;;;;;;16.12;48.04;99772.25;5986351;28;20471;-69
2022/04/24 13:32:18;;;;;;;8.02;3.45;;;;;;;15.99;48.83;99770.41;6001404;28;20119;-69
2022/04/24 13:35:13;;;;;;;6.70;3.73;;;;;;;16.13;48.74;99764.03;6004874;28;20027;-69
2022/04/24 13:38:17;;;;;;;6.90;3.40;;;;;;;16.36;48.42;99767.13;6004731;28;20038;-69
2022/04/24 13:41:13;;;;;;;8.95;3.90;;;;;;;16.56;46.70;99765.28;6003778;28;20073;-69
2022/04/24 13:44:09;;;;;;;6.60;4.10;;;;;;;16.40;46.23;99764.84;6003743;28;20034;-69
2022/04/24 13:47:09;;;;;;;6.68;3.85;;;;;;;16.11;46.88;99768.78;6004416;28;20042;-69
2022/04/24 13:50:04;;;;;;;10.82;4.38;;;;;;;16.32;46.10;99776.59;6003849;28;20394;-69
2022/04/24 13:53:00;;;;;;;5.93;3.50;;;;;;;16.26;45.65;99764.03;6004368;28;20040;-68
2022/04/24 13:55:57;;;;;;;7.43;3.78;;;;;;;15.78;47.15;99770.56;6004419;28;20049;-69
2022/04/24 13:58:52;;;;;;;6.68;3.33;;;;;;;16.09;46.40;99768.97;6004896;28;20031;-69
2022/04/24 14:01:47;;;;;;;8.07;3.60;;;;;;;15.70;47.47;99768.09;6003090;28;20039;-69
2022/04/24 14:04:43;;;;;;;8.00;3.87;;;;;;;15.99;47.19;99767.72;6014379;28;20027;-69